Time;durP1;ratioP1;P1;durP2;ratioP2;P2;SDS_P1;SDS_P2;PMS_P1;PMS_P2;Temp;Humidity;BMP_temperature;BMP_pressure;BME280_temperature;BME280_humidity;BME280_pressure;Samples;Min_cycle;Max_cycle;Signal;HPM_P1;HPM_P2
2021/01/19 00:01:21;;;;;;;24.00;19.20;;;5.30;99.90;;;;;;6168747;23;20447;-80
2021/01/19 00:03:48;;;;;;;22.00;18.50;;;5.20;99.90;;;;;;6168735;23;20415;-80
2021/01/19 00:06:17;;;;;;;22.67;18.93;;;5.30;99.90;;;;;;6205277;23;20387;-80
2021/01/19 00:08:44;;;;;;;23.23;18.90;;;5.20;99.90;;;;;;6168748;23;20926;-80
2021/01/19 00:11:11;;;;;;;27.23;19.43;;;5.20;99.90;;;;;;6168765;23;20423;-80
2021/01/19 00:13:39;;;;;;;23.97;18.97;;;5.20;99.90;;;;;;6169522;23;20486;-80
2021/01/19 00:16:06;;;;;;;23.20;18.40;;;5.20;99.90;;;;;;6170391;23;20462;-80
2021/01/19 00:18:33;;;;;;;25.27;19.17;;;5.20;99.90;;;;;;6169458;23;20431;-79
2021/01/19 00:21:00;;;;;;;22.17;19.17;;;5.20;99.90;;;;;;6206161;23;20406;-79
2021/01/19 00:23:28;;;;;;;21.57;19.27;;;5.20;99.90;;;;;;6206671;23;20883;-79
2021/01/19 00:25:55;;;;;;;25.53;20.97;;;5.20;99.90;;;;;;6206744;23;20392;-79
2021/01/19 00:28:23;;;;;;;25.08;21.90;;;5.20;99.90;;;;;;6169561;23;20803;-79
2021/01/19 00:30:51;;;;;;;22.13;19.30;;;5.30;99.90;;;;;;6170061;23;20211;-79
2021/01/19 00:33:18;;;;;;;24.50;20.40;;;5.30;99.90;;;;;;6170682;23;20794;-79
2021/01/19 00:35:45;;;;;;;24.50;21.00;;;5.30;99.90;;;;;;6207527;23;20443;-79
2021/01/19 00:38:13;;;;;;;27.00;21.30;;;5.20;99.90;;;;;;6170297;23;20430;-79
2021/01/19 00:40:40;;;;;;;25.43;22.73;;;5.20;99.90;;;;;;6170082;23;20438;-79
2021/01/19 00:43:07;;;;;;;28.60;22.70;;;5.20;99.90;;;;;;6170960;23;20419;-79
2021/01/19 00:45:34;;;;;;;25.87;22.63;;;5.20;99.90;;;;;;6171060;23;20442;-79
2021/01/19 00:48:03;;;;;;;28.00;23.20;;;5.20;99.90;;;;;;6172017;23;20416;-79
2021/01/19 00:50:33;;;;;;;26.30;22.23;;;5.20;99.90;;;;;;6171922;23;20412;-79
2021/01/19 00:53:02;;;;;;;24.00;21.53;;;5.20;99.90;;;;;;6172737;23;20766;-79
2021/01/19 00:55:48;;;;;;;25.60;22.47;;;5.20;99.90;;;;;;6204640;23;20752;-79
2021/01/19 00:58:15;;;;;;;24.27;21.67;;;5.20;99.90;;;;;;6204436;23;20863;-79
2021/01/19 01:00:45;;;;;;;26.33;22.10;;;5.20;99.90;;;;;;6166974;23;20415;-80
2021/01/19 01:03:14;;;;;;;26.30;23.00;;;5.20;99.90;;;;;;6167514;23;20791;-80
2021/01/19 01:05:41;;;;;;;28.70;23.97;;;5.20;99.90;;;;;;6166960;23;20474;-80
2021/01/19 01:08:08;;;;;;;27.93;23.57;;;5.20;99.90;;;;;;6203916;23;20396;-80
2021/01/19 01:10:36;;;;;;;29.20;26.10;;;5.20;99.90;;;;;;6167242;23;20423;-80
2021/01/19 01:13:03;;;;;;;29.50;24.40;;;5.20;99.90;;;;;;6167896;23;20887;-80
2021/01/19 01:15:33;;;;;;;27.53;24.57;;;5.20;99.90;;;;;;6168262;23;20420;-80
2021/01/19 01:18:00;;;;;;;26.83;23.97;;;5.20;99.90;;;;;;6168322;23;20407;-80
2021/01/19 01:20:47;;;;;;;34.23;27.60;;;5.20;99.90;;;;;;6168502;23;20867;-80
2021/01/19 01:23:14;;;;;;;36.63;27.80;;;5.20;99.90;;;;;;6167928;23;20434;-79
2021/01/19 01:25:42;;;;;;;31.43;26.63;;;5.20;99.90;;;;;;6167183;23;20420;-79
2021/01/19 01:28:09;;;;;;;29.93;26.17;;;5.10;99.90;;;;;;6167144;23;20435;-79
2021/01/19 01:30:36;;;;;;;30.53;26.37;;;5.20;99.90;;;;;;6168171;23;20423;-79
2021/01/19 01:33:04;;;;;;;32.17;26.67;;;5.20;99.90;;;;;;6168686;23;20403;-79
2021/01/19 01:35:31;;;;;;;31.10;26.87;;;5.20;99.90;;;;;;6168307;23;20878;-79
2021/01/19 01:38:06;;;;;;;34.17;27.70;;;5.20;99.90;;;;;;6205650;23;20383;-79
2021/01/19 01:40:36;;;;;;;29.33;26.27;;;5.20;99.90;;;;;;6204935;23;20406;-79
2021/01/19 01:43:11;;;;;;;31.33;27.00;;;5.20;99.90;;;;;;6168102;23;20415;-79
2021/01/19 01:45:39;;;;;;;28.93;25.67;;;5.20;99.90;;;;;;6169487;23;20419;-79
2021/01/19 01:48:09;;;;;;;29.50;25.70;;;5.30;99.90;;;;;;6168245;23;20416;-79
2021/01/19 01:50:37;;;;;;;32.13;28.60;;;5.20;99.90;;;;;;6169013;23;20423;-79
2021/01/19 01:53:07;;;;;;;32.37;27.53;;;5.20;99.90;;;;;;6204873;23;20388;-79
2021/01/19 01:55:35;;;;;;;31.83;26.57;;;5.20;99.90;;;;;;6204516;23;20486;-79
2021/01/19 01:58:03;;;;;;;35.10;28.10;;;5.30;99.90;;;;;;6205354;23;20396;-79
2021/01/19 02:00:30;;;;;;;30.07;26.80;;;5.30;99.90;;;;;;6169617;23;20499;-79
2021/01/19 02:02:58;;;;;;;29.67;26.00;;;5.30;99.90;;;;;;6206228;23;20474;-79
2021/01/19 02:05:27;;;;;;;31.00;27.40;;;5.30;99.90;;;;;;6169435;23;20476;-79
2021/01/19 02:08:10;;;;;;;29.20;25.57;;;5.30;99.90;;;;;;6206012;23;20407;-79
2021/01/19 02:10:50;;;;;;;28.43;25.20;;;5.30;99.90;;;;;;6168973;23;20416;-79
2021/01/19 02:13:28;;;;;;;28.77;25.87;;;5.30;99.90;;;;;;6169078;23;20403;-79
2021/01/19 02:16:03;;;;;;;31.45;24.48;;;5.30;99.90;;;;;;6167146;23;20407;-79
2021/01/19 02:18:46;;;;;;;29.80;23.80;;;5.40;99.90;;;;;;6169297;23;20199;-79
2021/01/19 02:21:39;;;;;;;30.07;24.87;;;5.40;99.90;;;;;;6204224;23;20438;-79
2021/01/19 02:24:14;;;;;;;28.10;25.08;;;5.40;99.90;;;;;;6167006;23;20438;-79
2021/01/19 02:27:09;;;;;;;27.30;23.40;;;5.50;99.90;;;;;;6167977;23;20507;-79
2021/01/19 02:30:02;;;;;;;28.40;24.47;;;5.50;99.90;;;;;;6205046;23;20422;-79
2021/01/19 02:32:38;;;;;;;28.60;25.57;;;5.40;99.90;;;;;;6163126;23;20749;-79
2021/01/19 02:35:14;;;;;;;29.33;25.90;;;5.40;99.90;;;;;;6168139;23;20459;-79
2021/01/19 02:37:56;;;;;;;28.03;24.77;;;5.40;99.90;;;;;;6198150;23;20435;-79
2021/01/19 02:40:24;;;;;;;31.73;27.73;;;5.40;99.90;;;;;;6167927;23;20514;-79
2021/01/19 02:43:00;;;;;;;30.40;26.77;;;5.30;99.90;;;;;;6169285;23;20412;-79
2021/01/19 02:45:28;;;;;;;29.87;26.67;;;5.40;99.90;;;;;;6168420;23;20414;-79
2021/01/19 02:47:56;;;;;;;29.77;26.57;;;5.40;99.90;;;;;;6204692;23;20787;-79
2021/01/19 02:50:25;;;;;;;29.90;26.30;;;5.40;99.90;;;;;;6168316;23;20439;-79
2021/01/19 02:52:53;;;;;;;30.07;26.00;;;5.40;99.90;;;;;;6168629;23;20416;-79
2021/01/19 02:55:21;;;;;;;30.30;26.40;;;5.40;99.90;;;;;;6169416;23;20466;-79
2021/01/19 02:58:16;;;;;;;29.83;24.90;;;5.40;99.90;;;;;;6169370;23;20522;-79
2021/01/19 03:00:56;;;;;;;30.07;26.37;;;5.40;99.90;;;;;;6171196;23;20458;-79
2021/01/19 03:03:26;;;;;;;34.07;27.50;;;5.40;99.90;;;;;;6209462;23;20384;-79
2021/01/19 03:05:54;;;;;;;31.20;26.43;;;5.40;99.90;;;;;;6174062;23;20780;-80
2021/01/19 03:08:24;;;;;;;31.40;26.27;;;5.40;99.90;;;;;;6207507;23;20407;-80
2021/01/19 03:10:52;;;;;;;30.33;25.03;;;5.40;99.90;;;;;;6171741;23;20407;-80
2021/01/19 03:13:19;;;;;;;30.17;25.67;;;5.30;99.90;;;;;;6168686;23;20489;-80
2021/01/19 03:15:47;;;;;;;28.87;25.23;;;5.30;99.90;;;;;;6165478;23;20494;-80
2021/01/19 03:18:15;;;;;;;31.13;27.50;;;5.40;99.90;;;;;;6201715;23;20399;-80
2021/01/19 03:20:48;;;;;;;29.97;26.33;;;5.30;99.90;;;;;;6201736;23;20471;-80
2021/01/19 03:23:15;;;;;;;29.13;25.77;;;5.30;99.90;;;;;;6165358;23;20412;-80
2021/01/19 03:25:42;;;;;;;28.60;25.53;;;5.30;99.90;;;;;;6165146;23;20751;-80
2021/01/19 03:28:09;;;;;;;28.67;25.30;;;5.30;99.90;;;;;;6165531;23;20411;-80
2021/01/19 03:30:37;;;;;;;32.47;26.30;;;5.40;99.90;;;;;;6201622;23;20395;-80
2021/01/19 03:33:05;;;;;;;29.00;23.47;;;5.30;99.90;;;;;;6165922;23;20407;-80
2021/01/19 03:35:38;;;;;;;33.87;26.70;;;5.30;99.90;;;;;;6165781;23;20419;-80
2021/01/19 03:38:07;;;;;;;29.80;25.67;;;5.30;99.90;;;;;;6165835;23;20525;-80
2021/01/19 03:40:35;;;;;;;27.13;23.47;;;5.30;99.90;;;;;;6201904;23;20723;-80
2021/01/19 03:43:02;;;;;;;27.67;24.73;;;5.30;99.90;;;;;;6166933;23;20412;-80
2021/01/19 03:45:30;;;;;;;28.30;24.17;;;5.30;99.90;;;;;;6166773;23;20470;-80
2021/01/19 03:47:57;;;;;;;27.37;24.30;;;5.30;99.90;;;;;;6166870;23;20894;-80
2021/01/19 03:50:25;;;;;;;27.90;24.63;;;5.30;99.90;;;;;;6168729;23;20435;-80
2021/01/19 03:52:52;;;;;;;32.07;23.87;;;5.30;99.90;;;;;;6167949;23;20450;-80
2021/01/19 03:55:20;;;;;;;36.20;24.37;;;5.40;99.90;;;;;;6170024;23;20426;-80
2021/01/19 03:57:48;;;;;;;30.43;24.40;;;5.40;99.90;;;;;;6169482;23;20772;-80
2021/01/19 04:00:17;;;;;;;29.27;24.77;;;5.40;99.90;;;;;;6167690;23;20419;-80
2021/01/19 04:02:44;;;;;;;28.83;25.50;;;5.40;99.90;;;;;;6166095;23;20204;-80
2021/01/19 04:05:11;;;;;;;27.70;23.80;;;5.40;99.90;;;;;;6203514;23;20403;-80
2021/01/19 04:07:40;;;;;;;29.30;24.97;;;5.40;99.90;;;;;;6166296;23;20789;-80
2021/01/19 04:10:09;;;;;;;29.10;23.73;;;5.30;99.90;;;;;;6166533;23;20477;-80
2021/01/19 04:12:38;;;;;;;26.53;23.67;;;5.30;99.90;;;;;;6166625;23;20443;-80
2021/01/19 04:15:06;;;;;;;24.80;22.00;;;5.40;99.90;;;;;;6166178;23;20408;-80
2021/01/19 04:17:34;;;;;;;26.40;23.30;;;5.30;99.90;;;;;;6203458;23;20426;-80
2021/01/19 04:20:01;;;;;;;26.63;23.83;;;5.30;99.90;;;;;;6166986;23;20498;-80
2021/01/19 04:22:28;;;;;;;28.83;23.70;;;5.30;99.90;;;;;;6203541;23;20474;-80
2021/01/19 04:24:56;;;;;;;27.43;22.53;;;5.30;99.90;;;;;;6167164;23;20411;-80
2021/01/19 04:27:23;;;;;;;26.83;23.90;;;5.30;99.90;;;;;;6205004;23;20399;-80
2021/01/19 04:29:51;;;;;;;26.00;23.20;;;5.30;99.90;;;;;;6167566;23;20428;-80
2021/01/19 04:32:18;;;;;;;27.40;23.47;;;5.30;99.90;;;;;;6167909;23;20423;-80
2021/01/19 04:34:46;;;;;;;26.80;23.97;;;5.40;99.90;;;;;;6169231;23;20415;-80
2021/01/19 04:37:13;;;;;;;25.10;22.40;;;5.30;99.90;;;;;;6167164;23;20438;-80
2021/01/19 04:39:40;;;;;;;25.07;22.40;;;5.30;99.90;;;;;;6167001;23;20445;-80
2021/01/19 04:42:08;;;;;;;26.53;22.80;;;5.30;99.90;;;;;;6167623;23;20875;-80
2021/01/19 04:44:36;;;;;;;24.00;21.40;;;5.30;99.90;;;;;;6167906;23;20420;-80
2021/01/19 04:50:08;;;;;;;23.00;20.33;;;5.30;99.90;;;;;;6168154;23;20775;-81
2021/01/19 04:52:39;;;;;;;27.83;21.77;;;5.40;99.90;;;;;;6168731;23;20415;-81
2021/01/19 04:55:08;;;;;;;23.27;20.33;;;5.30;99.90;;;;;;6205658;23;20384;-81
2021/01/19 04:57:37;;;;;;;25.87;21.57;;;5.30;99.90;;;;;;6169169;23;20846;-81
2021/01/19 05:00:09;;;;;;;30.37;22.43;;;5.30;99.90;;;;;;6169819;23;20466;-81
2021/01/19 05:03:10;;;;;;;26.07;20.90;;;5.30;99.90;;;;;;6170868;23;20420;-81
2021/01/19 05:06:00;;;;;;;21.50;19.40;;;5.30;99.90;;;;;;6170961;23;20483;-81
2021/01/19 05:08:57;;;;;;;21.30;18.60;;;5.30;99.90;;;;;;6207569;23;20752;-81
2021/01/19 05:11:26;;;;;;;19.17;17.07;;;5.30;99.90;;;;;;6172799;23;20408;-81
2021/01/19 05:13:56;;;;;;;23.33;18.00;;;5.30;99.90;;;;;;6207183;23;20898;-81
2021/01/19 05:16:26;;;;;;;21.13;16.57;;;5.40;99.90;;;;;;6169067;23;20458;-81
2021/01/19 05:18:54;;;;;;;17.90;16.00;;;5.30;99.90;;;;;;6170295;23;20415;-81
2021/01/19 05:21:22;;;;;;;19.13;15.10;;;5.30;99.90;;;;;;6206954;23;20191;-81
2021/01/19 05:23:49;;;;;;;20.90;15.27;;;5.30;99.90;;;;;;6170918;23;20434;-81
2021/01/19 05:26:18;;;;;;;17.67;15.50;;;5.30;99.90;;;;;;6170332;23;20416;-81
2021/01/19 05:28:47;;;;;;;15.67;14.10;;;5.30;99.90;;;;;;6171637;23;20431;-81
2021/01/19 05:31:21;;;;;;;16.33;14.63;;;5.30;99.90;;;;;;6172450;23;20450;-81
2021/01/19 05:34:13;;;;;;;17.20;13.53;;;5.30;99.90;;;;;;6168028;23;20727;-81
2021/01/19 05:36:46;;;;;;;21.80;15.20;;;5.30;99.90;;;;;;6131814;23;20763;-81
2021/01/19 05:39:16;;;;;;;15.50;13.90;;;5.30;99.90;;;;;;6167220;23;20439;-81
2021/01/19 05:41:45;;;;;;;17.70;13.30;;;5.30;99.90;;;;;;6167561;23;20454;-81
2021/01/19 05:44:16;;;;;;;15.50;13.80;;;5.30;99.90;;;;;;6167348;23;20415;-81
2021/01/19 05:46:48;;;;;;;18.90;13.37;;;5.20;99.90;;;;;;6167937;23;20400;-81
2021/01/19 05:49:21;;;;;;;22.03;13.43;;;5.30;99.90;;;;;;6205100;23;20415;-81
2021/01/19 05:51:51;;;;;;;15.97;12.43;;;5.20;99.90;;;;;;6167841;23;20423;-81
2021/01/19 05:54:26;;;;;;;14.27;12.80;;;5.20;99.90;;;;;;6204408;23;20388;-81
2021/01/19 05:57:04;;;;;;;15.77;13.50;;;5.20;99.90;;;;;;6168713;23;20765;-80
2021/01/19 05:59:34;;;;;;;17.40;13.10;;;5.20;99.90;;;;;;6204862;23;20465;-80
2021/01/19 06:02:03;;;;;;;15.97;13.40;;;5.20;99.90;;;;;;6167974;23;20753;-80
2021/01/19 06:04:33;;;;;;;16.90;12.87;;;5.20;99.90;;;;;;6168768;23;20462;-80
2021/01/19 06:07:04;;;;;;;12.87;11.50;;;5.20;99.90;;;;;;6167700;23;20411;-80
2021/01/19 06:09:31;;;;;;;19.83;12.30;;;5.20;99.90;;;;;;6168447;23;20431;-80
2021/01/19 06:11:59;;;;;;;14.70;12.00;;;5.20;99.90;;;;;;6168518;23;20422;-80
2021/01/19 06:14:27;;;;;;;12.70;11.40;;;5.20;99.90;;;;;;6166617;23;20438;-81
2021/01/19 06:17:12;;;;;;;14.87;11.50;;;5.20;99.90;;;;;;6166809;23;20432;-81
2021/01/19 06:19:41;;;;;;;11.93;10.83;;;5.20;99.90;;;;;;6168093;23;20439;-81
2021/01/19 06:22:11;;;;;;;13.37;11.63;;;5.20;99.90;;;;;;6167211;23;20416;-81
2021/01/19 06:24:41;;;;;;;13.10;11.70;;;5.20;99.90;;;;;;6166458;23;20415;-81
2021/01/19 06:27:10;;;;;;;14.00;12.00;;;5.10;99.90;;;;;;6165807;23;20477;-81
2021/01/19 06:29:38;;;;;;;13.37;10.90;;;5.10;99.90;;;;;;6167189;23;20423;-81
2021/01/19 06:32:08;;;;;;;12.57;10.97;;;5.10;99.90;;;;;;6166836;23;20895;-81
2021/01/19 06:34:38;;;;;;;13.43;11.30;;;5.10;99.90;;;;;;6167043;23;20499;-81
2021/01/19 06:37:08;;;;;;;14.40;11.10;;;5.10;99.90;;;;;;6168474;23;20439;-81
2021/01/19 06:39:40;;;;;;;13.40;10.57;;;5.10;99.90;;;;;;6168281;23;20443;-81
2021/01/19 06:42:10;;;;;;;12.77;11.47;;;5.10;99.90;;;;;;6169737;23;20461;-81
2021/01/19 06:44:41;;;;;;;13.73;11.00;;;5.20;99.90;;;;;;6169616;23;20388;-81
2021/01/19 06:47:09;;;;;;;11.70;10.50;;;5.10;99.90;;;;;;6204385;23;20384;-81
2021/01/19 06:49:55;;;;;;;12.00;10.80;;;5.10;99.90;;;;;;6168079;23;20435;-81
2021/01/19 06:52:36;;;;;;;13.40;11.13;;;5.00;99.90;;;;;;6168599;23;20416;-81
2021/01/19 06:55:22;;;;;;;13.47;12.20;;;5.10;99.90;;;;;;6169247;23;20430;-81
2021/01/19 06:58:16;;;;;;;13.20;11.83;;;5.10;99.90;;;;;;6168867;23;20437;-81
2021/01/19 07:00:44;;;;;;;14.50;11.97;;;5.10;99.90;;;;;;6169658;23;20411;-81
2021/01/19 07:03:19;;;;;;;14.30;12.90;;;5.10;99.90;;;;;;6168877;23;20423;-81
2021/01/19 07:05:52;;;;;;;14.00;12.60;;;5.10;99.90;;;;;;6205896;23;20878;-81
2021/01/19 07:08:52;;;;;;;13.30;11.97;;;5.10;99.90;;;;;;6169259;23;20422;-81
2021/01/19 07:11:57;;;;;;;13.73;12.33;;;5.10;99.90;;;;;;6168130;23;20412;-81
2021/01/19 07:14:40;;;;;;;12.93;11.63;;;5.10;99.90;;;;;;6167513;23;20743;-81
2021/01/19 07:17:10;;;;;;;15.80;14.05;;;5.10;99.90;;;;;;6165240;23;20419;-81
2021/01/19 07:19:46;;;;;;;14.40;13.13;;;5.10;99.90;;;;;;6166278;23;20192;-81
2021/01/19 07:22:30;;;;;;;13.80;12.40;;;5.10;99.90;;;;;;6165853;23;20470;-81
2021/01/19 07:24:57;;;;;;;14.73;13.20;;;5.10;99.90;;;;;;6166756;23;20777;-81
2021/01/19 07:27:27;;;;;;;13.70;12.30;;;5.10;99.90;;;;;;6203169;23;20465;-81
2021/01/19 07:29:54;;;;;;;14.53;13.03;;;5.10;99.90;;;;;;6167509;23;20438;-81
2021/01/19 07:32:26;;;;;;;15.80;13.60;;;5.10;99.90;;;;;;6167513;23;20423;-81
2021/01/19 07:34:54;;;;;;;14.53;12.53;;;5.10;99.90;;;;;;6166121;23;20416;-81
2021/01/19 07:37:30;;;;;;;15.10;13.43;;;5.10;99.90;;;;;;6201735;23;20792;-80
2021/01/19 07:39:57;;;;;;;15.67;13.90;;;5.10;99.90;;;;;;6163395;23;20746;-80
2021/01/19 07:42:26;;;;;;;14.73;13.27;;;5.10;99.90;;;;;;6199966;23;20404;-80
2021/01/19 07:44:57;;;;;;;20.27;13.60;;;5.10;99.90;;;;;;6163389;23;20411;-80
2021/01/19 07:47:36;;;;;;;15.10;13.60;;;5.10;99.90;;;;;;6200286;23;20479;-80
2021/01/19 07:50:10;;;;;;;16.40;14.90;;;5.10;99.90;;;;;;6163352;23;20435;-81
2021/01/19 07:52:39;;;;;;;17.23;15.53;;;5.10;99.90;;;;;;6164513;23;20870;-81
2021/01/19 07:55:18;;;;;;;15.63;14.13;;;5.10;99.90;;;;;;6163750;23;20487;-80
2021/01/19 07:57:48;;;;;;;15.10;13.60;;;5.10;99.90;;;;;;6164772;23;20431;-80
2021/01/19 08:00:26;;;;;;;16.50;14.93;;;5.10;99.90;;;;;;6165980;23;20431;-80
2021/01/19 08:03:03;;;;;;;16.17;14.60;;;5.10;99.90;;;;;;6163754;23;20917;-80
2021/01/19 08:05:31;;;;;;;14.87;13.47;;;5.10;99.90;;;;;;6199739;23;20831;-80
2021/01/19 08:07:59;;;;;;;16.80;15.10;;;5.10;99.90;;;;;;6163483;23;20411;-80
2021/01/19 08:10:27;;;;;;;15.90;14.30;;;5.10;99.90;;;;;;6162899;23;20493;-81
2021/01/19 08:12:58;;;;;;;17.40;15.60;;;5.10;99.90;;;;;;6163358;23;20427;-81
2021/01/19 08:15:27;;;;;;;16.97;15.27;;;5.10;99.90;;;;;;6163750;23;20404;-80
2021/01/19 08:17:57;;;;;;;15.63;14.03;;;5.10;99.90;;;;;;6163229;23;20446;-80
2021/01/19 08:20:28;;;;;;;16.53;14.93;;;5.10;99.90;;;;;;6199587;23;20450;-80
2021/01/19 08:22:57;;;;;;;15.20;13.80;;;5.10;99.90;;;;;;6200246;23;20415;-80
2021/01/19 08:25:27;;;;;;;15.50;14.10;;;5.10;99.90;;;;;;6163922;23;20415;-80
2021/01/19 08:27:58;;;;;;;15.70;14.30;;;5.10;99.90;;;;;;6163514;23;20462;-80
2021/01/19 08:30:26;;;;;;;15.40;14.00;;;5.20;99.90;;;;;;6162693;23;20926;-80
2021/01/19 08:32:55;;;;;;;17.27;15.47;;;5.20;99.90;;;;;;6163217;23;20415;-80
2021/01/19 08:35:24;;;;;;;14.83;13.43;;;5.20;99.90;;;;;;6164822;23;20423;-81
2021/01/19 08:37:53;;;;;;;15.90;14.30;;;5.20;99.90;;;;;;6165348;23;20443;-81
2021/01/19 08:40:22;;;;;;;15.30;14.00;;;5.20;99.90;;;;;;6164051;23;20978;-81
2021/01/19 08:42:49;;;;;;;14.27;13.07;;;5.20;99.90;;;;;;6164733;23;20442;-81
2021/01/19 08:45:25;;;;;;;13.90;12.60;;;5.20;99.90;;;;;;6165036;23;20450;-82
2021/01/19 08:47:55;;;;;;;15.67;14.27;;;5.20;99.90;;;;;;6165288;23;20887;-81
2021/01/19 08:50:24;;;;;;;13.93;12.57;;;5.20;99.90;;;;;;6165118;23;20385;-81
2021/01/19 08:52:52;;;;;;;15.77;14.13;;;5.20;99.90;;;;;;6165092;23;20185;-81
2021/01/19 08:55:20;;;;;;;13.67;12.33;;;5.20;99.90;;;;;;6165403;23;20486;-81
2021/01/19 08:57:51;;;;;;;13.20;11.90;;;5.20;99.90;;;;;;6165667;23;20939;-79
2021/01/19 09:00:29;;;;;;;13.52;12.18;;;5.20;99.90;;;;;;6163501;23;20415;-79
2021/01/19 09:03:00;;;;;;;11.63;10.43;;;5.40;99.90;;;;;;6165548;23;20207;-81
2021/01/19 09:05:30;;;;;;;12.30;11.17;;;5.40;99.90;;;;;;6165378;23;20424;-80
2021/01/19 09:07:58;;;;;;;13.37;12.07;;;5.40;99.90;;;;;;6164804;23;20494;-80
2021/01/19 09:10:28;;;;;;;12.93;11.80;;;5.40;99.90;;;;;;6201588;23;20419;-80
2021/01/19 09:12:56;;;;;;;12.70;11.50;;;5.40;99.90;;;;;;6164243;23;20903;-80
2021/01/19 09:15:24;;;;;;;12.27;11.27;;;5.40;99.90;;;;;;6165532;23;20422;-80
2021/01/19 09:17:54;;;;;;;13.40;12.00;;;5.40;99.90;;;;;;6164234;23;20428;-80
2021/01/19 09:20:22;;;;;;;12.37;11.27;;;5.40;99.90;;;;;;6164935;23;20973;-80
2021/01/19 09:22:53;;;;;;;13.30;12.10;;;5.40;99.90;;;;;;6200943;23;20423;-80
2021/01/19 09:25:22;;;;;;;11.23;10.13;;;5.40;99.90;;;;;;6201643;23;20400;-80
2021/01/19 09:27:49;;;;;;;11.27;10.07;;;5.40;99.90;;;;;;6200309;23;20411;-80
2021/01/19 09:30:18;;;;;;;11.30;10.30;;;5.40;99.90;;;;;;6164442;23;20945;-80
2021/01/19 09:32:48;;;;;;;11.93;10.93;;;5.40;99.90;;;;;;6164900;23;20454;-80
2021/01/19 09:35:18;;;;;;;11.20;10.20;;;5.40;99.90;;;;;;6164634;23;20404;-80
2021/01/19 09:37:45;;;;;;;11.00;10.00;;;5.40;99.90;;;;;;6165246;23;20543;-80
2021/01/19 09:40:13;;;;;;;12.03;10.83;;;5.40;99.90;;;;;;6164691;23;20430;-80
2021/01/19 09:42:41;;;;;;;10.90;9.90;;;5.50;99.90;;;;;;6164095;23;20423;-80
2021/01/19 09:45:10;;;;;;;11.37;10.37;;;5.50;99.90;;;;;;6163921;23;20407;-80
2021/01/19 09:47:42;;;;;;;11.07;10.10;;;5.50;99.90;;;;;;6200992;23;20372;-80
2021/01/19 09:50:11;;;;;;;11.10;10.10;;;5.50;99.90;;;;;;6201250;23;20415;-80
2021/01/19 09:52:45;;;;;;;11.20;10.10;;;5.50;99.90;;;;;;6164662;23;20450;-80
2021/01/19 09:55:14;;;;;;;11.70;10.60;;;5.50;99.90;;;;;;6164618;23;20416;-80
2021/01/19 09:57:42;;;;;;;10.53;9.63;;;5.50;99.90;;;;;;6164667;23;20428;-80
2021/01/19 10:00:11;;;;;;;10.67;9.70;;;5.60;99.90;;;;;;6164338;23;20818;-80
2021/01/19 10:02:41;;;;;;;10.73;9.63;;;5.50;99.90;;;;;;6200506;23;20388;-80
2021/01/19 10:05:10;;;;;;;10.03;9.03;;;5.50;99.90;;;;;;6164533;23;20446;-79
2021/01/19 10:07:37;;;;;;;11.53;10.37;;;5.50;99.90;;;;;;6164206;23;20426;-79
2021/01/19 10:10:11;;;;;;;10.40;9.50;;;5.60;99.90;;;;;;6164219;23;20442;-79
2021/01/19 10:12:39;;;;;;;10.60;9.70;;;5.60;99.90;;;;;;6164594;23;20408;-79
2021/01/19 10:15:07;;;;;;;10.23;9.43;;;5.60;99.90;;;;;;6164588;23;20431;-79
2021/01/19 10:17:39;;;;;;;10.93;9.93;;;5.60;99.90;;;;;;6164825;23;20432;-79
2021/01/19 10:20:12;;;;;;;10.57;9.57;;;5.60;99.90;;;;;;6201767;23;20726;-79
2021/01/19 10:22:40;;;;;;;11.20;10.17;;;5.60;99.90;;;;;;6166024;23;20452;-79
2021/01/19 10:25:11;;;;;;;10.13;9.23;;;5.60;99.90;;;;;;6205088;23;20395;-79
2021/01/19 10:27:41;;;;;;;10.60;9.60;;;5.60;99.90;;;;;;6166177;23;20938;-79
2021/01/19 10:30:12;;;;;;;10.80;9.80;;;5.60;99.90;;;;;;6164934;23;20498;-79
2021/01/19 10:32:48;;;;;;;11.27;10.27;;;5.60;99.90;;;;;;6166163;23;20427;-80
2021/01/19 10:35:25;;;;;;;11.73;10.73;;;5.60;99.90;;;;;;6167980;23;20422;-80
2021/01/19 10:37:55;;;;;;;10.20;9.30;;;5.70;99.90;;;;;;6163140;23;20177;-79
2021/01/19 10:40:23;;;;;;;11.53;10.40;;;5.70;99.90;;;;;;6200794;23;20415;-79
2021/01/19 10:42:50;;;;;;;12.60;11.50;;;5.70;99.90;;;;;;6164016;23;20458;-79
2021/01/19 10:45:27;;;;;;;11.93;10.80;;;5.70;99.90;;;;;;6164468;23;20408;-79
2021/01/19 10:47:55;;;;;;;12.07;11.07;;;5.70;99.90;;;;;;6202334;23;20430;-80
2021/01/19 10:50:30;;;;;;;11.13;10.07;;;5.70;99.90;;;;;;6166450;23;20427;-80
2021/01/19 10:52:59;;;;;;;10.30;9.30;;;5.70;99.90;;;;;;6167578;23;20418;-80
2021/01/19 10:55:28;;;;;;;10.80;9.80;;;5.80;99.90;;;;;;6204337;23;20463;-80
2021/01/19 10:57:57;;;;;;;10.80;9.90;;;5.80;99.90;;;;;;6168123;23;20494;-80
2021/01/19 11:00:25;;;;;;;11.63;10.53;;;5.80;99.90;;;;;;6168342;23;20431;-80
2021/01/19 11:02:54;;;;;;;11.70;10.70;;;5.80;99.90;;;;;;6169438;23;20422;-80
2021/01/19 11:05:22;;;;;;;11.17;10.20;;;5.80;99.90;;;;;;6167175;23;20403;-80
2021/01/19 11:07:52;;;;;;;12.13;10.90;;;5.90;99.90;;;;;;6204527;23;20403;-80
2021/01/19 11:10:21;;;;;;;11.57;10.53;;;5.80;99.90;;;;;;6168352;23;20463;-80
2021/01/19 11:12:51;;;;;;;11.87;10.80;;;5.80;99.90;;;;;;6167858;23;20798;-80
2021/01/19 11:15:18;;;;;;;12.00;10.90;;;5.90;99.90;;;;;;6203177;23;20836;-80
2021/01/19 11:17:48;;;;;;;11.80;10.70;;;5.90;99.90;;;;;;6167062;23;20431;-80
2021/01/19 11:20:16;;;;;;;11.60;10.50;;;5.90;99.90;;;;;;6167588;23;20431;-80
2021/01/19 11:22:45;;;;;;;13.63;12.23;;;5.90;99.90;;;;;;6167788;23;20420;-80
2021/01/19 11:25:13;;;;;;;10.23;9.33;;;6.00;99.90;;;;;;6203873;23;20427;-80
2021/01/19 11:27:41;;;;;;;10.97;10.07;;;6.00;99.90;;;;;;6167232;23;20403;-80
2021/01/19 11:30:10;;;;;;;11.40;10.40;;;6.00;99.90;;;;;;6204319;23;20418;-80
2021/01/19 11:32:37;;;;;;;11.73;10.73;;;6.00;99.90;;;;;;6167136;23;20437;-80
2021/01/19 11:35:06;;;;;;;11.20;10.23;;;6.00;99.90;;;;;;6167277;23;20897;-80
2021/01/19 11:37:33;;;;;;;11.70;10.70;;;6.00;99.90;;;;;;6166573;23;20439;-81
2021/01/19 11:40:00;;;;;;;11.77;10.67;;;6.00;99.90;;;;;;6164628;23;20482;-80
2021/01/19 11:42:27;;;;;;;10.33;9.33;;;6.10;99.90;;;;;;6164396;23;20404;-80
2021/01/19 11:44:55;;;;;;;10.40;9.50;;;6.10;99.90;;;;;;6166396;23;20883;-80
2021/01/19 11:47:23;;;;;;;10.27;9.40;;;6.10;99.90;;;;;;6163837;23;20446;-80
2021/01/19 11:49:51;;;;;;;10.30;9.30;;;6.10;99.90;;;;;;6169348;23;20435;-80
2021/01/19 11:52:18;;;;;;;9.30;8.50;;;6.10;99.90;;;;;;6168993;23;20416;-80
2021/01/19 11:54:47;;;;;;;10.43;9.33;;;6.10;99.90;;;;;;6172074;23;20489;-80
2021/01/19 11:57:15;;;;;;;9.47;8.67;;;6.10;99.90;;;;;;6170635;23;20421;-79
2021/01/19 11:59:43;;;;;;;9.97;9.17;;;6.20;99.90;;;;;;6210101;23;20482;-79
2021/01/19 12:02:10;;;;;;;8.30;7.60;;;6.20;99.90;;;;;;6210274;23;20410;-80
2021/01/19 12:04:38;;;;;;;8.63;7.93;;;6.20;99.90;;;;;;6172790;23;20408;-80
2021/01/19 12:07:07;;;;;;;8.80;8.10;;;6.20;99.90;;;;;;6169328;23;20419;-80
2021/01/19 12:09:35;;;;;;;8.30;7.60;;;6.20;99.90;;;;;;6171631;23;20438;-80
2021/01/19 12:12:02;;;;;;;8.20;7.50;;;6.30;99.90;;;;;;6171866;23;20435;-80
2021/01/19 12:14:29;;;;;;;8.00;7.30;;;6.30;99.90;;;;;;6171333;23;20411;-80
2021/01/19 12:16:58;;;;;;;8.03;7.23;;;6.30;99.90;;;;;;6170460;23;20415;-80
2021/01/19 12:19:26;;;;;;;8.57;7.87;;;6.40;99.90;;;;;;6170671;23;20443;-80
2021/01/19 12:21:55;;;;;;;8.40;7.70;;;6.40;99.90;;;;;;6171257;23;20435;-80
2021/01/19 12:24:24;;;;;;;7.77;7.07;;;6.40;99.90;;;;;;6170534;23;20490;-80
2021/01/19 12:26:54;;;;;;;7.43;6.83;;;6.40;99.90;;;;;;6169455;23;20426;-80
2021/01/19 12:29:23;;;;;;;7.70;7.00;;;6.40;99.90;;;;;;6169431;23;20439;-79
2021/01/19 12:31:50;;;;;;;7.00;6.40;;;6.50;99.90;;;;;;6169992;23;20427;-80
2021/01/19 12:34:19;;;;;;;7.80;7.10;;;6.50;99.90;;;;;;6170804;23;20479;-80
2021/01/19 12:36:47;;;;;;;6.60;6.00;;;6.50;99.90;;;;;;6169620;23;20425;-80
2021/01/19 12:39:17;;;;;;;6.60;6.00;;;6.60;99.90;;;;;;6169833;23;20503;-80
2021/01/19 12:41:45;;;;;;;6.67;6.07;;;6.60;99.90;;;;;;6203371;23;20400;-80
2021/01/19 12:44:12;;;;;;;6.70;6.10;;;6.60;99.90;;;;;;6166022;23;20396;-80
2021/01/19 12:46:39;;;;;;;6.30;5.80;;;6.60;99.90;;;;;;6166162;23;20415;-80
2021/01/19 12:49:07;;;;;;;6.60;5.93;;;6.60;99.90;;;;;;6167944;23;20463;-80
2021/01/19 12:51:34;;;;;;;7.27;6.50;;;6.70;99.90;;;;;;6166637;23;20961;-80
2021/01/19 12:54:01;;;;;;;7.13;6.53;;;6.70;99.90;;;;;;6166383;23;20415;-80
2021/01/19 12:56:30;;;;;;;6.50;5.90;;;6.70;99.90;;;;;;6166731;23;20418;-79
2021/01/19 12:58:57;;;;;;;7.50;6.90;;;6.70;99.90;;;;;;6202798;23;20444;-81